Terminal Aerodrome Forecast
Issued by NWS Jackson, MS

Current Version | Previous Version | Text Only | Print | Product List | Glossary On
Versions: 1 2 3 4 5 6 7 8 9 10 11 12 13 14 15 16
000
FTUS44 KJAN 231120
TAFGWO
TAF
KGWO 231120Z 2312/2412 14003KT 4SM BR SKC
     FM231400 15004KT 5SM BR SCT010
     FM231600 18009KT P6SM FEW090 SCT250
     FM240600 18010KT P6SM BKN250=

USA.gov is the U.S. government's official web portal to all federal, state and local government web resources and services.